TimeCDT,TemperatureF,Dew PointF,Humidity,Sea Level PressureIn,VisibilityMPH,Wind Direction,Wind SpeedMPH,Gust SpeedMPH,PrecipitationIn,Events,Conditions,WindDirDegrees,DateUTC
12:15 AM,46.4,32.0,57,30.01,10.0,ESE,6.9,-,N/A,,Clear,110,2013-03-21 05:15:00
12:35 AM,46.4,32.0,57,30.00,10.0,ESE,8.1,-,N/A,,Clear,120,2013-03-21 05:35:00
12:55 AM,48.2,32.0,54,29.97,10.0,ESE,11.5,-,N/A,,Clear,120,2013-03-21 05:55:00
1:15 AM,48.2,32.0,54,29.97,10.0,ESE,9.2,-,N/A,,Clear,120,2013-03-21 06:15:00
1:35 AM,48.2,32.0,54,29.95,10.0,SE,10.4,-,N/A,,Clear,130,2013-03-21 06:35:00
1:55 AM,48.2,32.0,54,29.95,10.0,SE,12.7,-,N/A,,Clear,130,2013-03-21 06:55:00
2:15 AM,46.4,32.0,57,29.94,10.0,SE,11.5,-,N/A,,Clear,130,2013-03-21 07:15:00
2:35 AM,46.4,32.0,57,29.94,10.0,SE,11.5,-,N/A,,Clear,130,2013-03-21 07:35:00
2:55 AM,46.4,32.0,57,29.93,10.0,SE,10.4,-,N/A,,Clear,140,2013-03-21 07:55:00
3:35 AM,48.2,32.0,54,29.90,10.0,SE,12.7,17.3,N/A,,Clear,140,2013-03-21 08:35:00
3:55 AM,46.4,32.0,57,29.89,10.0,SE,11.5,-,N/A,,Clear,140,2013-03-21 08:55:00
4:15 AM,46.4,32.0,57,29.88,10.0,SSE,12.7,-,N/A,,Clear,150,2013-03-21 09:15:00
4:35 AM,46.4,32.0,57,29.88,10.0,SE,11.5,-,N/A,,Clear,140,2013-03-21 09:35:00
4:55 AM,46.4,32.0,57,29.87,10.0,SE,10.4,-,N/A,,Clear,140,2013-03-21 09:55:00
5:15 AM,46.4,32.0,57,29.87,10.0,SE,11.5,-,N/A,,Clear,140,2013-03-21 10:15:00
5:35 AM,46.4,32.0,57,29.85,10.0,SE,10.4,-,N/A,,Clear,140,2013-03-21 10:35:00
5:55 AM,46.4,32.0,57,29.84,10.0,SE,11.5,-,N/A,,Clear,140,2013-03-21 10:55:00
6:15 AM,46.4,32.0,57,29.84,10.0,SE,12.7,-,N/A,,Clear,140,2013-03-21 11:15:00
6:35 AM,46.4,32.0,57,29.82,10.0,SE,13.8,-,N/A,,Scattered Clouds,140,2013-03-21 11:35:00
6:55 AM,46.4,32.0,57,29.82,10.0,SE,11.5,-,N/A,,Clear,140,2013-03-21 11:55:00
7:15 AM,48.2,32.0,54,29.82,10.0,SSE,13.8,-,N/A,,Mostly Cloudy,150,2013-03-21 12:15:00
7:35 AM,50.0,32.0,50,29.81,10.0,SSE,13.8,-,N/A,,Overcast,150,2013-03-21 12:35:00
7:55 AM,50.0,32.0,50,29.81,10.0,SSE,12.7,-,N/A,,Mostly Cloudy,150,2013-03-21 12:55:00
8:15 AM,50.0,32.0,50,29.81,10.0,SSE,15.0,21.9,N/A,,Overcast,160,2013-03-21 13:15:00
8:35 AM,50.0,32.0,50,29.81,10.0,SE,15.0,19.6,N/A,,Overcast,140,2013-03-21 13:35:00
8:55 AM,51.8,32.0,47,29.80,10.0,SSE,16.1,21.9,N/A,,Mostly Cloudy,150,2013-03-21 13:55:00
9:15 AM,51.8,32.0,47,29.79,10.0,SSE,16.1,23.0,N/A,,Mostly Cloudy,150,2013-03-21 14:15:00
9:35 AM,51.8,32.0,47,29.78,10.0,SSE,16.1,24.2,N/A,,Overcast,150,2013-03-21 14:35:00
9:55 AM,53.6,32.0,44,29.77,10.0,SSE,19.6,25.3,N/A,,Overcast,150,2013-03-21 14:55:00
10:15 AM,53.6,32.0,44,29.77,10.0,SSE,17.3,23.0,N/A,,Overcast,150,2013-03-21 15:15:00
10:35 AM,53.6,32.0,44,29.77,10.0,SSE,17.3,-,N/A,,Overcast,160,2013-03-21 15:35:00
10:55 AM,53.6,32.0,44,29.76,10.0,SSE,16.1,26.5,N/A,,Overcast,150,2013-03-21 15:55:00
11:15 AM,53.6,33.8,47,29.74,10.0,SSE,20.7,25.3,N/A,,Overcast,150,2013-03-21 16:15:00
11:35 AM,53.6,35.6,51,29.73,10.0,SSE,18.4,-,N/A,,Scattered Clouds,150,2013-03-21 16:35:00
12:15 PM,55.4,37.4,51,29.69,10.0,SSE,19.6,24.2,N/A,,Clear,150,2013-03-21 17:15:00
12:55 PM,59.0,37.4,45,29.68,10.0,SSE,18.4,25.3,N/A,,Scattered Clouds,150,2013-03-21 17:55:00
1:15 PM,59.0,39.2,48,29.67,10.0,SSE,17.3,23.0,N/A,,Scattered Clouds,150,2013-03-21 18:15:00
1:35 PM,60.8,41.0,48,29.65,10.0,SSE,17.3,23.0,N/A,,Clear,150,2013-03-21 18:35:00
1:55 PM,62.6,42.8,48,29.64,10.0,SSE,24.2,28.8,N/A,,Clear,160,2013-03-21 18:55:00
2:15 PM,64.4,42.8,45,29.63,10.0,SSE,20.7,27.6,N/A,,Clear,160,2013-03-21 19:15:00
2:35 PM,64.4,42.8,45,29.60,10.0,SSE,20.7,27.6,N/A,,Clear,160,2013-03-21 19:35:00
2:55 PM,66.2,44.6,46,29.58,10.0,SSE,19.6,-,N/A,,Clear,160,2013-03-21 19:55:00
3:15 PM,68.0,44.6,43,29.55,10.0,SE,16.1,27.6,N/A,,Clear,140,2013-03-21 20:15:00
3:35 PM,68.0,46.4,46,29.54,10.0,ESE,17.3,-,N/A,,Clear,120,2013-03-21 20:35:00
3:55 PM,68.0,46.4,46,29.53,10.0,SSE,11.5,-,N/A,,Scattered Clouds,150,2013-03-21 20:55:00
4:15 PM,71.6,46.4,41,29.52,10.0,South,23.0,26.5,N/A,,Overcast,170,2013-03-21 21:15:00
4:55 PM,73.4,46.4,38,29.50,10.0,South,23.0,28.8,N/A,,Scattered Clouds,170,2013-03-21 21:55:00
5:15 PM,73.4,46.4,38,29.49,10.0,South,20.7,28.8,N/A,,Clear,180,2013-03-21 22:15:00
5:35 PM,73.4,48.2,41,29.49,10.0,South,21.9,27.6,N/A,,Clear,170,2013-03-21 22:35:00
5:55 PM,73.4,50.0,44,29.49,10.0,South,18.4,25.3,N/A,,Clear,170,2013-03-21 22:55:00
6:15 PM,71.6,50.0,46,29.48,10.0,SSE,19.6,27.6,N/A,,Clear,160,2013-03-21 23:15:00
6:35 PM,71.6,51.8,50,29.49,10.0,SSE,16.1,25.3,N/A,,Clear,150,2013-03-21 23:35:00
6:55 PM,69.8,53.6,56,29.50,10.0,SE,13.8,-,N/A,,Clear,140,2013-03-21 23:55:00
7:15 PM,68.0,53.6,60,29.50,10.0,SE,15.0,-,N/A,,Clear,130,2013-03-22 00:15:00
7:35 PM,66.2,53.6,64,29.51,10.0,ESE,15.0,-,N/A,,Clear,120,2013-03-22 00:35:00
7:55 PM,64.4,53.6,68,29.52,10.0,SE,17.3,24.2,N/A,,Clear,130,2013-03-22 00:55:00
8:15 PM,64.4,53.6,68,29.53,10.0,SE,16.1,-,N/A,,Clear,130,2013-03-22 01:15:00
8:55 PM,57.2,46.4,67,29.56,10.0,East,15.0,-,N/A,,Scattered Clouds,90,2013-03-22 01:55:00
9:15 PM,55.4,44.6,67,29.56,10.0,East,17.3,-,N/A,,Clear,90,2013-03-22 02:15:00
9:55 PM,53.6,42.8,67,29.57,10.0,East,17.3,23.0,N/A,,Clear,90,2013-03-22 02:55:00
10:15 PM,53.6,42.8,67,29.58,10.0,East,15.0,21.9,N/A,,Clear,100,2013-03-22 03:15:00
10:35 PM,51.8,41.0,67,29.60,10.0,East,15.0,21.9,N/A,,Scattered Clouds,80,2013-03-22 03:35:00
10:55 PM,51.8,41.0,67,29.59,10.0,East,20.7,25.3,N/A,,Scattered Clouds,90,2013-03-22 03:55:00
11:15 PM,50.0,41.0,71,29.60,10.0,East,20.7,26.5,N/A,,Scattered Clouds,90,2013-03-22 04:15:00
11:35 PM,50.0,41.0,71,29.60,10.0,East,18.4,25.3,N/A,,Clear,100,2013-03-22 04:35:00
11:55 PM,48.2,41.0,76,29.59,10.0,East,18.4,25.3,N/A,,Clear,90,2013-03-22 04:55:00